createdAt,value
2018-04-26T00:00:41.673Z,98.07
2018-04-26T00:03:09.272Z,97.35
2018-04-26T00:05:37.068Z,96.83
2018-04-26T00:08:04.678Z,97.08
2018-04-26T00:10:32.264Z,97.30
2018-04-26T00:13:00.027Z,97.94
2018-04-26T00:15:27.634Z,97.47
2018-04-26T00:17:55.211Z,97.39
2018-04-26T00:20:22.800Z,97.34
2018-04-26T00:22:50.405Z,97.79
2018-04-26T00:25:18.138Z,97.93
2018-04-26T00:27:45.906Z,97.04
2018-04-26T00:30:13.530Z,96.48
2018-04-26T00:32:41.120Z,96.89
2018-04-26T00:35:09.080Z,97.03
2018-04-26T00:37:36.763Z,97.58
2018-04-26T00:40:04.343Z,97.39
2018-04-26T00:42:32.089Z,97.74
2018-04-26T00:44:59.755Z,97.76
2018-04-26T00:47:27.411Z,98.43
2018-04-26T00:49:54.989Z,98.22
2018-04-26T00:52:22.590Z,97.98
2018-04-26T00:54:50.191Z,97.93
2018-04-26T00:57:17.857Z,97.32
2018-04-26T00:59:45.485Z,96.90
2018-04-26T01:02:13.063Z,96.89
2018-04-26T01:04:40.637Z,97.33
2018-04-26T01:07:08.266Z,98.12
2018-04-26T01:09:35.852Z,98.44
2018-04-26T01:12:03.439Z,98.87
2018-04-26T01:14:31.068Z,99.32
2018-04-26T01:16:58.659Z,99.99
2018-04-26T01:19:26.408Z,99.92
2018-04-26T01:21:54.071Z,99.57
2018-04-26T01:24:21.743Z,99.77
2018-04-26T01:26:49.396Z,100.00
2018-04-26T01:29:17.042Z,100.00
2018-04-26T01:31:44.634Z,100.00
2018-04-26T01:34:12.598Z,100.00
2018-04-26T01:36:51.939Z,99.35
2018-04-26T01:39:19.517Z,99.37
2018-04-26T01:41:47.095Z,99.64
2018-04-26T01:44:15.694Z,99.87
2018-04-26T01:46:43.397Z,100.00
2018-04-26T01:49:10.980Z,99.93
2018-04-26T01:51:39.549Z,100.00
2018-04-26T01:54:07.394Z,100.00
2018-04-26T01:56:35.068Z,98.49
2018-04-26T01:59:02.700Z,97.80
2018-04-26T02:01:30.388Z,97.43
2018-04-26T02:03:57.963Z,96.30
2018-04-26T02:06:25.588Z,96.53
2018-04-26T02:08:53.167Z,96.09
2018-04-26T02:11:20.833Z,96.13
2018-04-26T02:13:48.448Z,96.61
2018-04-26T02:16:16.027Z,96.69
2018-04-26T02:18:43.818Z,95.31
2018-04-26T02:21:11.494Z,95.62
2018-04-26T02:23:39.147Z,95.79
2018-04-26T02:26:06.817Z,96.39
2018-04-26T02:28:34.443Z,97.09
2018-04-26T02:31:02.128Z,97.58
2018-04-26T02:33:29.991Z,97.78
2018-04-26T02:35:57.619Z,97.88
2018-04-26T02:38:25.197Z,97.47
2018-04-26T02:40:52.774Z,97.16
2018-04-26T02:43:20.440Z,97.41
2018-04-26T02:45:48.031Z,97.41
2018-04-26T02:48:15.618Z,97.25
2018-04-26T02:50:43.248Z,97.17
2018-04-26T02:53:10.894Z,98.07
2018-04-26T02:55:38.546Z,97.97
2018-04-26T02:58:06.221Z,97.55
2018-04-26T03:00:33.866Z,97.23
2018-04-26T03:03:01.528Z,96.76
2018-04-26T03:05:29.207Z,96.87
2018-04-26T03:07:56.925Z,97.19
2018-04-26T03:10:24.942Z,97.20
2018-04-26T03:12:52.601Z,97.57
2018-04-26T03:15:20.453Z,97.29
2018-04-26T03:17:48.040Z,96.96
2018-04-26T03:20:15.666Z,97.25
2018-04-26T03:22:43.450Z,97.28
2018-04-26T03:25:11.104Z,97.52
2018-04-26T03:27:42.071Z,97.62
2018-04-26T03:30:09.721Z,96.86
2018-04-26T03:32:37.308Z,96.32
2018-04-26T03:35:04.969Z,96.30
2018-04-26T03:37:32.724Z,96.50
2018-04-26T03:40:00.364Z,96.12
2018-04-26T03:42:27.977Z,95.51
2018-04-26T03:44:55.560Z,95.17
2018-04-26T03:47:23.323Z,94.38
2018-04-26T03:49:50.953Z,93.79
2018-04-26T03:52:18.676Z,92.71
2018-04-26T03:54:46.258Z,86.75
2018-04-26T03:57:14.001Z,81.73
2018-04-26T03:59:53.342Z,77.32
2018-04-26T04:02:32.942Z,73.99
2018-04-26T04:08:05.683Z,66.88
2018-04-26T04:10:33.335Z,64.48
2018-04-26T04:13:00.923Z,61.63
2018-04-26T04:15:28.535Z,58.63
2018-04-26T04:17:56.111Z,57.01
2018-04-26T04:20:23.699Z,55.75
2018-04-26T04:22:51.311Z,54.07
2018-04-26T04:25:18.892Z,52.13
2018-04-26T04:27:46.470Z,50.96
2018-04-26T04:30:14.369Z,50.04
2018-04-26T04:32:42.093Z,49.20
2018-04-26T04:35:09.754Z,48.71
2018-04-26T04:37:37.385Z,47.81
2018-04-26T04:40:04.978Z,46.57
2018-04-26T04:42:32.560Z,46.46
2018-04-26T04:45:00.172Z,47.69
2018-04-26T04:47:27.758Z,48.19
2018-04-26T04:49:55.336Z,46.77
2018-04-26T04:52:22.934Z,45.57
2018-04-26T04:54:50.505Z,44.58
2018-04-26T04:57:18.084Z,42.94
2018-04-26T04:59:45.707Z,41.42
2018-04-26T05:02:13.435Z,40.13
2018-04-26T05:04:41.018Z,40.81
2018-04-26T05:07:08.646Z,40.66
2018-04-26T05:09:36.263Z,39.40
2018-04-26T05:12:03.861Z,40.20
2018-04-26T05:14:31.477Z,39.54
2018-04-26T05:16:59.052Z,37.99
2018-04-26T05:19:26.624Z,36.88
2018-04-26T05:21:54.244Z,35.24
2018-04-26T05:24:21.828Z,34.61
2018-04-26T05:26:49.411Z,33.08
2018-04-26T05:29:17.025Z,34.29
2018-04-26T05:31:44.617Z,33.95
2018-04-26T05:34:12.204Z,34.17
2018-04-26T05:36:39.828Z,34.22
2018-04-26T05:39:07.403Z,34.14
2018-04-26T05:41:34.975Z,37.13
2018-04-26T05:44:02.626Z,33.40
2018-04-26T05:46:30.216Z,33.51
2018-04-26T05:48:57.794Z,32.67
2018-04-26T05:51:25.408Z,33.58
2018-04-26T05:53:52.991Z,32.56
2018-04-26T05:56:20.565Z,33.63
2018-04-26T05:58:48.161Z,31.31
2018-04-26T06:01:15.735Z,30.50
2018-04-26T06:03:43.329Z,31.55
2018-04-26T06:06:10.983Z,30.35
2018-04-26T06:08:38.555Z,31.00
2018-04-26T06:11:06.130Z,30.90
2018-04-26T06:13:33.736Z,29.87
2018-04-26T06:16:01.327Z,29.24
2018-04-26T06:18:28.938Z,30.97
2018-04-26T06:20:56.543Z,29.03
2018-04-26T06:23:24.123Z,28.85
2018-04-26T06:25:51.702Z,29.01
2018-04-26T06:28:19.312Z,28.69
2018-04-26T06:30:46.887Z,29.96
2018-04-26T06:33:14.472Z,30.13
2018-04-26T06:35:42.151Z,28.58
2018-04-26T06:38:09.733Z,28.85
2018-04-26T06:40:37.451Z,29.53
2018-04-26T06:43:05.069Z,27.61
2018-04-26T06:45:32.652Z,28.19
2018-04-26T06:48:00.261Z,27.11
2018-04-26T06:50:27.875Z,26.65
2018-04-26T06:52:55.480Z,27.23
2018-04-26T06:55:23.082Z,27.08
2018-04-26T06:57:50.699Z,27.38
2018-04-26T07:00:18.284Z,27.16
2018-04-26T07:02:45.869Z,27.75
2018-04-26T07:05:13.483Z,26.60
2018-04-26T07:07:41.063Z,27.10
2018-04-26T07:10:08.648Z,25.64
2018-04-26T07:12:36.269Z,25.92
2018-04-26T07:15:03.849Z,25.93
2018-04-26T07:17:31.435Z,26.21
2018-04-26T07:19:59.129Z,25.41
2018-04-26T07:22:26.706Z,25.03
2018-04-26T07:24:54.287Z,26.60
2018-04-26T07:27:21.963Z,24.83
2018-04-26T07:29:49.553Z,25.32
2018-04-26T07:32:17.133Z,25.42
2018-04-26T07:34:44.841Z,24.92
2018-04-26T07:37:12.376Z,25.23
2018-04-26T07:39:39.967Z,25.40
2018-04-26T07:42:07.588Z,24.06
2018-04-26T07:44:35.166Z,26.50
2018-04-26T07:47:02.798Z,26.28
2018-04-26T07:49:30.459Z,27.80
2018-04-26T07:51:58.038Z,29.15
2018-04-26T07:54:25.626Z,26.98
2018-04-26T07:56:53.232Z,26.41
2018-04-26T07:59:20.819Z,25.20
2018-04-26T08:01:48.437Z,26.40
2018-04-26T08:04:16.060Z,26.12
2018-04-26T08:06:43.645Z,23.75
2018-04-26T08:09:11.224Z,23.92
2018-04-26T08:11:38.851Z,22.83
2018-04-26T08:14:06.488Z,23.23
2018-04-26T08:16:34.073Z,23.03
2018-04-26T08:19:01.707Z,22.93
2018-04-26T08:21:29.289Z,23.62
2018-04-26T08:23:56.863Z,21.93
2018-04-26T08:26:24.488Z,20.65
2018-04-26T08:28:52.072Z,20.93
2018-04-26T08:31:19.652Z,21.72
2018-04-26T08:33:47.279Z,21.08
2018-04-26T08:36:14.860Z,22.74
2018-04-26T08:38:42.453Z,22.58
2018-04-26T08:41:10.077Z,20.88
2018-04-26T08:43:37.656Z,22.51
2018-04-26T08:46:05.261Z,20.83
2018-04-26T08:48:32.881Z,20.77
2018-04-26T08:51:00.472Z,22.94
2018-04-26T08:53:28.055Z,21.16
2018-04-26T08:55:55.677Z,20.71
2018-04-26T08:58:23.261Z,19.98
2018-04-26T09:00:50.888Z,20.16
2018-04-26T09:03:18.512Z,20.73
2018-04-26T09:05:46.092Z,20.35
2018-04-26T09:08:13.671Z,19.88
2018-04-26T09:10:41.290Z,20.41
2018-04-26T09:13:08.863Z,21.33
2018-04-26T09:15:36.524Z,21.57
2018-04-26T09:18:04.123Z,20.73
2018-04-26T09:20:31.706Z,20.63
2018-04-26T09:22:59.283Z,20.45
2018-04-26T09:25:26.895Z,20.71
2018-04-26T09:27:54.489Z,19.27
2018-04-26T09:30:22.270Z,20.55
2018-04-26T09:32:49.900Z,19.38
2018-04-26T09:35:17.491Z,20.42
2018-04-26T09:37:45.074Z,19.50
2018-04-26T09:40:12.693Z,20.47
2018-04-26T09:42:40.274Z,18.23
2018-04-26T09:45:07.857Z,19.15
2018-04-26T09:47:35.499Z,17.63
2018-04-26T09:50:03.079Z,16.66
2018-04-26T09:52:30.665Z,17.74
2018-04-26T09:54:58.275Z,18.68
2018-04-26T09:57:25.849Z,18.47
2018-04-26T09:59:53.420Z,20.49
2018-04-26T10:02:25.788Z,19.01
2018-04-26T10:04:55.379Z,18.31
2018-04-26T10:07:22.963Z,20.27
2018-04-26T10:09:50.600Z,20.96
2018-04-26T10:12:18.184Z,22.00
2018-04-26T10:14:45.772Z,17.70
2018-04-26T10:17:13.400Z,18.24
2018-04-26T10:19:40.992Z,17.79
2018-04-26T10:22:08.640Z,19.77
2018-04-26T10:24:36.265Z,20.42
2018-04-26T10:27:03.872Z,17.39
2018-04-26T10:29:31.449Z,17.11
2018-04-26T10:31:59.154Z,17.05
2018-04-26T10:34:26.710Z,16.74
2018-04-26T10:36:54.295Z,16.30
2018-04-26T10:39:21.915Z,17.25
2018-04-26T10:41:49.494Z,17.28
2018-04-26T10:44:17.082Z,18.32
2018-04-26T10:46:44.727Z,18.28
2018-04-26T10:49:12.304Z,18.09
2018-04-26T10:51:39.878Z,17.03
2018-04-26T10:54:07.507Z,17.73
2018-04-26T10:56:35.078Z,19.03
2018-04-26T10:59:02.684Z,18.22
2018-04-26T11:01:30.297Z,17.75
2018-04-26T11:03:57.937Z,19.69
2018-04-26T11:06:25.527Z,20.33
2018-04-26T11:08:53.140Z,17.84
2018-04-26T11:11:20.800Z,18.61
2018-04-26T11:13:48.339Z,17.17
2018-04-26T11:16:15.962Z,17.42
2018-04-26T11:18:43.541Z,18.85
2018-04-26T11:21:11.128Z,18.74
2018-04-26T11:23:38.754Z,17.76
2018-04-26T11:26:06.327Z,15.79
2018-04-26T11:28:33.899Z,15.25
2018-04-26T11:31:01.547Z,15.32
2018-04-26T11:33:29.113Z,14.64
2018-04-26T11:35:56.701Z,16.10
2018-04-26T11:38:24.315Z,13.57
2018-04-26T11:40:51.895Z,14.47
2018-04-26T11:43:19.462Z,12.41
2018-04-26T11:45:47.062Z,12.73
2018-04-26T11:48:14.639Z,12.97
2018-04-26T11:50:42.222Z,14.02
2018-04-26T11:53:09.830Z,13.43
2018-04-26T11:55:37.414Z,14.26
2018-04-26T11:58:04.987Z,15.44
2018-04-26T12:00:32.603Z,14.93
2018-04-26T12:03:00.181Z,14.67
2018-04-26T12:05:27.756Z,15.08
2018-04-26T12:07:55.372Z,16.00
2018-04-26T12:10:22.975Z,15.17
2018-04-26T12:12:50.550Z,14.16
2018-04-26T12:15:18.167Z,13.92
2018-04-26T12:17:45.747Z,14.29
2018-04-26T12:20:13.339Z,14.32
2018-04-26T12:22:40.994Z,13.45
2018-04-26T12:25:08.572Z,13.17
2018-04-26T12:27:36.164Z,14.81
2018-04-26T12:30:03.818Z,14.89
2018-04-26T12:32:31.401Z,15.10
2018-04-26T12:34:58.983Z,14.73
2018-04-26T12:37:26.604Z,15.75
2018-04-26T12:39:54.187Z,16.55
2018-04-26T12:42:21.859Z,18.87
2018-04-26T12:44:49.428Z,18.44
2018-04-26T12:47:17.005Z,17.39
2018-04-26T12:49:44.598Z,17.27
2018-04-26T12:52:12.221Z,19.42
2018-04-26T12:54:39.812Z,16.76
2018-04-26T12:57:07.392Z,17.65
2018-04-26T12:59:35.022Z,19.10
2018-04-26T13:02:02.635Z,18.90
2018-04-26T13:04:30.214Z,19.42
2018-04-26T13:06:57.822Z,19.46
2018-04-26T13:09:25.406Z,20.20
2018-04-26T13:11:55.836Z,20.87
2018-04-26T13:14:24.087Z,20.54
2018-04-26T13:16:51.894Z,20.20
2018-04-26T13:19:19.752Z,20.60
2018-04-26T13:21:47.328Z,21.19
2018-04-26T13:24:14.892Z,21.23
2018-04-26T13:26:42.526Z,20.64
2018-04-26T13:29:10.135Z,20.04
2018-04-26T13:31:37.750Z,19.75
2018-04-26T13:34:05.332Z,19.66
2018-04-26T13:36:32.945Z,21.81
2018-04-26T13:39:00.567Z,21.15
2018-04-26T13:41:28.150Z,22.19
2018-04-26T13:43:55.756Z,22.09
2018-04-26T13:46:23.351Z,21.99
2018-04-26T13:48:50.923Z,22.84
2018-04-26T13:51:18.573Z,22.23
2018-04-26T13:53:46.147Z,22.75
2018-04-26T13:56:13.779Z,23.02
2018-04-26T13:58:41.391Z,22.85
2018-04-26T14:01:08.988Z,21.60
2018-04-26T14:03:36.587Z,22.50
2018-04-26T14:06:04.329Z,22.30
2018-04-26T14:08:31.915Z,21.51
2018-04-26T14:10:59.495Z,21.92
2018-04-26T14:13:27.108Z,23.42
2018-04-26T14:15:54.696Z,23.09
2018-04-26T14:18:22.281Z,22.65
2018-04-26T14:20:49.957Z,24.05
2018-04-26T14:23:17.639Z,22.72
2018-04-26T14:25:45.411Z,22.16
2018-04-26T14:28:13.046Z,22.03
2018-04-26T14:30:40.618Z,22.81
2018-04-26T14:33:08.229Z,22.59
2018-04-26T14:35:35.894Z,22.76
2018-04-26T14:38:03.479Z,22.48
2018-04-26T14:40:31.065Z,23.08
2018-04-26T14:42:58.693Z,21.52
2018-04-26T14:45:26.277Z,23.25
2018-04-26T14:47:53.851Z,22.19
2018-04-26T14:50:21.446Z,23.15
2018-04-26T14:52:49.091Z,22.32
2018-04-26T14:55:16.738Z,22.92
2018-04-26T14:57:44.351Z,23.46
2018-04-26T15:00:11.915Z,24.06
2018-04-26T15:02:39.481Z,26.80
2018-04-26T15:05:07.094Z,26.88
2018-04-26T15:07:34.819Z,27.01
2018-04-26T15:10:02.387Z,27.22
2018-04-26T15:12:30.009Z,25.97
2018-04-26T15:14:57.582Z,27.95
2018-04-26T15:17:25.157Z,28.88
2018-04-26T15:19:52.804Z,24.72
2018-04-26T15:22:20.376Z,24.62
2018-04-26T15:24:47.956Z,24.27
2018-04-26T15:27:15.632Z,25.20
2018-04-26T15:29:43.215Z,24.71
2018-04-26T15:32:10.806Z,25.54
2018-04-26T15:34:38.419Z,24.72
2018-04-26T15:37:06.055Z,28.49
2018-04-26T15:39:33.602Z,27.62
2018-04-26T15:42:01.235Z,27.87
2018-04-26T15:44:28.824Z,26.36
2018-04-26T15:46:56.399Z,27.08
2018-04-26T15:49:24.022Z,27.56
2018-04-26T15:51:51.609Z,28.39
2018-04-26T15:54:31.058Z,29.77
2018-04-26T15:57:07.554Z,31.99
2018-04-26T15:59:46.931Z,33.91
2018-04-26T16:02:34.732Z,36.79
2018-04-26T16:05:19.772Z,37.18
2018-04-26T16:08:04.798Z,37.93
2018-04-26T16:10:49.887Z,38.06
2018-04-26T16:13:34.842Z,39.29
2018-04-26T16:19:34.480Z,39.93
2018-04-26T16:31:58.720Z,45.64
2018-04-26T16:34:50.027Z,46.05
2018-04-26T16:37:34.956Z,44.73
2018-04-26T16:40:02.553Z,48.94
2018-04-26T16:42:30.148Z,46.69
2018-04-26T16:44:57.733Z,50.07
2018-04-26T16:47:25.322Z,48.97
2018-04-26T16:49:52.957Z,50.12
2018-04-26T16:52:20.747Z,52.54
2018-04-26T16:54:48.347Z,49.04
2018-04-26T16:57:15.932Z,49.40
2018-04-26T16:59:43.539Z,51.36
2018-04-26T17:02:11.165Z,51.59
2018-04-26T17:04:38.907Z,53.37
2018-04-26T17:07:06.464Z,52.76
2018-04-26T17:09:34.114Z,54.71
2018-04-26T17:12:01.695Z,55.78
2018-04-26T17:14:29.291Z,56.35
2018-04-26T17:16:56.983Z,58.54
2018-04-26T17:19:24.540Z,57.76
2018-04-26T17:21:52.137Z,58.14
2018-04-26T17:24:19.762Z,58.59
2018-04-26T17:26:47.353Z,59.34
2018-04-26T17:29:14.970Z,60.14
2018-04-26T17:31:42.584Z,60.32
2018-04-26T17:34:10.207Z,61.02
2018-04-26T17:36:37.943Z,61.96
2018-04-26T17:39:06.625Z,63.86
2018-04-26T17:41:34.264Z,64.20
2018-04-26T17:44:01.846Z,62.19
2018-04-26T17:46:29.461Z,63.48
2018-04-26T17:48:57.061Z,63.56
2018-04-26T17:51:24.644Z,66.93
2018-04-26T17:53:52.271Z,68.37
2018-04-26T17:56:19.863Z,69.42
2018-04-26T17:58:47.569Z,67.96
2018-04-26T18:01:15.173Z,68.27
2018-04-26T18:03:42.756Z,70.16
2018-04-26T18:06:10.330Z,71.04
2018-04-26T18:08:38.145Z,69.23
2018-04-26T18:11:05.714Z,69.54
2018-04-26T18:13:33.300Z,70.31
2018-04-26T18:16:00.953Z,72.84
2018-04-26T18:18:28.600Z,73.01
2018-04-26T18:20:56.180Z,71.74
2018-04-26T18:23:23.928Z,71.69
2018-04-26T18:25:51.582Z,73.93
2018-04-26T18:28:19.170Z,75.27
2018-04-26T18:30:46.918Z,74.30
2018-04-26T18:33:14.510Z,75.45
2018-04-26T18:35:42.109Z,75.39
2018-04-26T18:38:09.907Z,75.00
2018-04-26T18:40:37.486Z,73.88
2018-04-26T18:43:05.125Z,74.96
2018-04-26T18:45:32.745Z,72.89
2018-04-26T18:48:00.325Z,74.74
2018-04-26T18:50:27.903Z,77.26
2018-04-26T18:52:55.561Z,77.55
2018-04-26T18:55:23.329Z,78.52
2018-04-26T18:57:50.920Z,79.19
2018-04-26T19:00:18.555Z,78.82
2018-04-26T19:02:46.166Z,80.07
2018-04-26T19:05:13.741Z,79.17
2018-04-26T19:07:41.433Z,80.53
2018-04-26T19:10:09.088Z,81.23
2018-04-26T19:12:36.662Z,80.70
2018-04-26T19:15:04.286Z,80.63
2018-04-26T19:17:31.912Z,81.10
2018-04-26T19:19:59.465Z,80.27
2018-04-26T19:22:27.105Z,80.78
2018-04-26T19:24:54.704Z,79.84
2018-04-26T19:27:22.279Z,81.04
2018-04-26T19:29:49.893Z,80.84
2018-04-26T19:32:17.453Z,81.11
2018-04-26T19:34:45.012Z,80.06
2018-04-26T19:37:12.608Z,81.36
2018-04-26T19:39:40.173Z,82.03
2018-04-26T19:42:07.757Z,82.92
2018-04-26T19:44:35.367Z,83.97
2018-04-26T19:47:03.006Z,84.98
2018-04-26T19:49:30.585Z,85.17
2018-04-26T19:51:58.210Z,84.69
2018-04-26T19:54:25.780Z,85.02
2018-04-26T19:56:53.349Z,85.15
2018-04-26T19:59:20.947Z,85.60
2018-04-26T20:01:48.857Z,85.74
2018-04-26T20:04:16.441Z,86.47
2018-04-26T20:06:44.045Z,87.19
2018-04-26T20:09:11.610Z,88.09
2018-04-26T20:11:39.170Z,88.10
2018-04-26T20:14:06.792Z,87.81
2018-04-26T20:16:34.348Z,87.43
2018-04-26T20:19:01.924Z,87.67
2018-04-26T20:21:29.533Z,86.24
2018-04-26T20:23:57.102Z,88.06
2018-04-26T20:26:24.682Z,88.65
2018-04-26T20:28:52.274Z,88.83
2018-04-26T20:31:19.838Z,89.13
2018-04-26T20:33:47.407Z,88.95
2018-04-26T20:36:15.096Z,89.74
2018-04-26T20:38:42.613Z,90.17
2018-04-26T20:41:10.180Z,90.65
2018-04-26T20:43:37.784Z,90.69
2018-04-26T20:46:05.357Z,90.28
2018-04-26T20:48:41.867Z,90.73
2018-04-26T20:51:09.477Z,90.85
2018-04-26T20:53:37.046Z,90.70
2018-04-26T20:56:04.657Z,91.24
2018-04-26T20:58:32.270Z,91.49
2018-04-26T21:00:59.856Z,91.54
2018-04-26T21:03:27.468Z,91.51
2018-04-26T21:05:55.038Z,91.14
2018-04-26T21:08:22.702Z,91.46
2018-04-26T21:10:50.277Z,91.52
2018-04-26T21:13:18.043Z,91.19
2018-04-26T21:15:45.612Z,91.20
2018-04-26T21:18:13.268Z,91.18
2018-04-26T21:20:41.037Z,91.31
2018-04-26T21:23:08.629Z,91.83
2018-04-26T21:25:36.248Z,91.64
2018-04-26T21:28:03.816Z,92.01
2018-04-26T21:30:31.388Z,92.63
2018-04-26T21:32:59.023Z,92.73
2018-04-26T21:35:26.615Z,92.78
2018-04-26T21:37:54.299Z,92.67
2018-04-26T21:40:21.944Z,91.05
2018-04-26T21:42:49.529Z,90.41
2018-04-26T21:45:17.240Z,89.41
2018-04-26T21:47:44.894Z,88.75
2018-04-26T21:50:17.953Z,88.76
2018-04-26T21:52:51.294Z,89.42
2018-04-26T21:55:24.336Z,89.95
2018-04-26T21:57:57.455Z,91.12
2018-04-26T22:00:30.604Z,91.30
2018-04-26T22:02:57.702Z,91.18
2018-04-26T22:05:28.014Z,91.19
2018-04-26T22:07:55.602Z,90.20
2018-04-26T22:10:23.218Z,90.70
2018-04-26T22:12:50.806Z,91.07
2018-04-26T22:15:18.383Z,91.40
2018-04-26T22:17:46.007Z,91.24
2018-04-26T22:20:13.592Z,90.82
2018-04-26T22:22:41.179Z,91.15
2018-04-26T22:25:08.803Z,91.30
2018-04-26T22:27:36.393Z,91.81
2018-04-26T22:30:04.026Z,92.60
2018-04-26T22:32:31.644Z,92.41
2018-04-26T22:34:59.225Z,92.64
2018-04-26T22:37:26.820Z,92.93
2018-04-26T22:39:54.439Z,92.56
2018-04-26T22:42:22.024Z,92.63
2018-04-26T22:44:49.611Z,92.76
2018-04-26T22:47:17.319Z,92.69
2018-04-26T22:49:44.866Z,92.37
2018-04-26T22:52:12.461Z,93.45
2018-04-26T22:54:40.137Z,93.96
2018-04-26T22:57:07.717Z,94.00
2018-04-26T22:59:35.287Z,94.03
2018-04-26T23:02:02.911Z,94.23
2018-04-26T23:04:30.500Z,93.56
2018-04-26T23:06:58.162Z,93.19
2018-04-26T23:09:25.784Z,93.56
2018-04-26T23:11:53.371Z,93.80
2018-04-26T23:14:20.955Z,91.82
2018-04-26T23:16:48.588Z,92.05
2018-04-26T23:19:16.184Z,91.42
2018-04-26T23:21:43.759Z,91.12
2018-04-26T23:24:11.408Z,90.42
2018-04-26T23:26:38.992Z,90.44
2018-04-26T23:29:06.582Z,90.45
2018-04-26T23:31:34.211Z,91.06
2018-04-26T23:34:01.808Z,91.43
2018-04-26T23:36:29.465Z,90.84
2018-04-26T23:38:57.092Z,91.06
2018-04-26T23:41:24.676Z,90.07
2018-04-26T23:43:52.263Z,89.86
2018-04-26T23:46:19.890Z,90.75
2018-04-26T23:48:47.467Z,91.81
2018-04-26T23:51:15.042Z,92.07
2018-04-26T23:53:42.711Z,90.77
2018-04-26T23:56:10.382Z,89.81
2018-04-26T23:58:37.970Z,89.51
